San Remo, Italy

10:19 PM CEST on August 30, 2014 (GMT +0200)
Ventimiglia - Torri | Change Station
CLOSE
Current Station
Personal Weather Station
Location: Torri,
Elevation: 219 ft
Nearby Weather Stations

Elev 219 ft 43.84 °N, 7.55 °E | Updated 4 minutes ago

Clear
Clear
69.6 °F
Feels Like 69.6 °F
N
0.0
Wind Variable Wind from East
Gusts 1.0 mph

Today
High -- | Low -- °F
--% Chance of Precip.
Yesterday
High -- | Low -- °F
Precip. -- in
6:49 AM 8:08 PM
Waxing Crescent, 24% visible
Pressure 29.95 in
Visibility -9999.0 miles
Clouds
Dew Point 65 °F
Humidity 84%
Rainfall 0.00 in
Snow Depth Not available.
UV Not available.
Pollen Not available.
Air Quality Not available.
Flu Activity Not available.
METAR LFMN 302000Z 19002KT CAVOK 23/20 Q1014 NOSIG

More Conditions Fewer Conditions

Pressure 29.95 in
Visibility -9999.0 miles
Clouds
Dew Point 65 °F
Humidity 84%
Rainfall 0.00 in
Snow Depth Not available.
UV Not available.
Pollen Not available.
Air Quality Not available.
Flu Activity Not available.
METAR LFMN 302000Z 19002KT CAVOK 23/20 Q1014 NOSIG

More Conditions Fewer Conditions

10-Day Weather Forecast

Almanac

Astronomy

Aug. 30, 2014 Rise Set
Actual Time 6:49 AM CEST 8:08 PM CEST
Civil Twilight 6:20 AM CEST 8:38 PM CEST
Nautical Twilight 5:44 AM CEST 9:14 PM CEST
Astronomical Twilight 5:06 AM CEST 9:51 PM CEST
Moon 11:31 AM CEST 10:21 PM CEST
Length of Visible Light 14h 18m
Length of Day
13h 18m
Tomorrow will be 2m 53s shorter.
Waxing Crescent, 24% of the Moon is Illuminated
Today
Waxing Crescent
Sep 2
First Quarter
Sep 8
Full
Sep 15
Last Quarter
Sep 24
New

Today's Extremes

Country Highs Country Lows

Community

WunderPhotos

Upload Photos

1,748,622 photos uploaded!

WunderBlogs® & News

Nearby

Snow Depth

Not available.

Earthquake Activity

City Distance Mag. Time & Date
No recent earthquake activity has been reported nearby.
Minimum magnitude displayed is 2.5.

Coastal Water Temperatures

Place Temperature
No Stations Reporting

Nearby Weather Stations